TimeEDT,TemperatureF,Dew PointF,Humidity,Sea Level PressureIn,VisibilityMPH,Wind Direction,Wind SpeedMPH,Gust SpeedMPH,PrecipitationIn,Events,Conditions,WindDirDegrees,DateUTC
12:52 AM,42.1,41.0,96,29.97,10.0,Calm,Calm,-,N/A,,Clear,0,2011-10-19 04:52:00
1:52 AM,42.1,41.0,96,29.96,10.0,Calm,Calm,-,N/A,,Clear,0,2011-10-19 05:52:00
2:52 AM,43.0,41.0,93,29.93,10.0,Calm,Calm,-,N/A,,Clear,0,2011-10-19 06:52:00
3:52 AM,44.1,42.1,93,29.95,10.0,Calm,Calm,-,N/A,,Scattered Clouds,0,2011-10-19 07:52:00
4:52 AM,43.0,42.1,97,29.93,10.0,Calm,Calm,-,N/A,,Clear,0,2011-10-19 08:52:00
5:52 AM,44.1,43.0,96,29.94,10.0,Calm,Calm,-,N/A,,Clear,0,2011-10-19 09:52:00
6:52 AM,46.0,44.1,93,29.96,10.0,Calm,Calm,-,N/A,,Mostly Cloudy,0,2011-10-19 10:52:00
8:52 AM,51.1,46.0,83,29.97,10.0,NNW,5.8,-,N/A,,Overcast,330,2011-10-19 12:52:00
10:52 AM,57.0,48.0,72,29.92,10.0,Calm,Calm,-,N/A,,Overcast,0,2011-10-19 14:52:00
11:25 AM,59.0,44.6,59,29.89,10.0,ENE,9.2,18.4,N/A,,Scattered Clouds,60,2011-10-19 15:25:00
11:52 AM,57.0,45.0,64,29.91,10.0,ENE,12.7,17.3,0.00,Rain,Light Rain,60,2011-10-19 15:52:00
12:52 PM,52.0,50.0,93,29.88,4.0,NNE,3.5,-,0.16,Rain,Rain,30,2011-10-19 16:52:00
1:27 PM,53.6,50.0,88,29.86,7.0,NE,6.9,-,0.07,Rain,Light Rain,40,2011-10-19 17:27:00
1:52 PM,53.1,51.1,93,29.86,6.0,NE,6.9,-,0.14,Rain,Rain,50,2011-10-19 17:52:00
2:52 PM,53.1,51.1,93,29.82,5.0,NNE,6.9,-,0.05,Rain,Light Rain,30,2011-10-19 18:52:00
4:21 PM,53.6,51.8,94,29.78,4.0,NE,12.7,18.4,0.03,Rain,Light Rain,40,2011-10-19 20:21:00
4:47 PM,53.6,51.8,94,29.77,7.0,NNE,8.1,-,0.05,Rain,Light Rain,30,2011-10-19 20:47:00
4:52 PM,53.1,50.0,89,29.78,6.0,NNE,9.2,-,0.05,Rain,Light Rain,30,2011-10-19 20:52:00
5:15 PM,53.6,50.0,88,29.77,3.0,NE,11.5,-,0.02,Rain,Light Rain,40,2011-10-19 21:15:00
5:18 PM,53.6,50.0,88,29.77,3.0,NE,11.5,17.3,0.03,Rain,Rain,40,2011-10-19 21:18:00
5:52 PM,52.0,50.0,93,29.78,7.0,NNE,5.8,-,0.05,Rain,Light Rain,30,2011-10-19 21:52:00
6:52 PM,53.1,50.0,89,29.75,10.0,NNE,9.2,20.7,0.01,,Overcast,20,2011-10-19 22:52:00
7:52 PM,53.1,50.0,89,29.71,10.0,NNE,9.2,-,0.00,,Overcast,30,2011-10-19 23:52:00
8:52 PM,54.0,51.1,90,29.70,5.0,Variable,6.9,-,0.02,Rain,Light Rain,0,2011-10-20 00:52:00
9:52 PM,54.0,51.1,90,29.68,10.0,NE,9.2,16.1,0.01,,Overcast,40,2011-10-20 01:52:00
10:52 PM,55.0,52.0,89,29.65,10.0,NE,8.1,20.7,N/A,,Overcast,40,2011-10-20 02:52:00
11:52 PM,55.0,51.1,86,29.60,10.0,Variable,6.9,16.1,N/A,,Overcast,0,2011-10-20 03:52:00